sensor_id;sensor_type;location;lat;lon;timestamp;temperature;humidity
37446;DHT22;23307;51.136;14.942;2023-03-16T00:02:15;2.10;99.90
37446;DHT22;23307;51.136;14.942;2023-03-16T00:04:41;2.10;99.90
37446;DHT22;23307;51.136;14.942;2023-03-16T00:07:08;2.20;99.90
37446;DHT22;23307;51.136;14.942;2023-03-16T00:09:35;2.20;99.90
37446;DHT22;23307;51.136;14.942;2023-03-16T00:12:06;2.20;99.90
37446;DHT22;23307;51.136;14.942;2023-03-16T00:14:32;2.10;99.90
37446;DHT22;23307;51.136;14.942;2023-03-16T00:17:00;2.10;99.90
37446;DHT22;23307;51.136;14.942;2023-03-16T00:19:25;2.10;99.90
37446;DHT22;23307;51.136;14.942;2023-03-16T00:21:51;2.10;99.90
37446;DHT22;23307;51.136;14.942;2023-03-16T00:24:18;2.10;99.90
37446;DHT22;23307;51.136;14.942;2023-03-16T00:26:47;2.00;99.90
37446;DHT22;23307;51.136;14.942;2023-03-16T00:29:13;2.00;99.90
37446;DHT22;23307;51.136;14.942;2023-03-16T00:31:39;2.00;99.90
37446;DHT22;23307;51.136;14.942;2023-03-16T00:34:09;2.00;99.90
37446;DHT22;23307;51.136;14.942;2023-03-16T00:36:35;1.90;99.90
37446;DHT22;23307;51.136;14.942;2023-03-16T00:39:03;1.90;99.90
37446;DHT22;23307;51.136;14.942;2023-03-16T00:41:29;1.90;99.90
37446;DHT22;23307;51.136;14.942;2023-03-16T00:43:55;1.80;99.90
37446;DHT22;23307;51.136;14.942;2023-03-16T00:46:20;1.80;99.90
37446;DHT22;23307;51.136;14.942;2023-03-16T00:48:51;1.80;99.90
37446;DHT22;23307;51.136;14.942;2023-03-16T00:51:18;1.80;99.90
37446;DHT22;23307;51.136;14.942;2023-03-16T00:53:45;1.70;99.90
37446;DHT22;23307;51.136;14.942;2023-03-16T00:56:11;1.70;99.90
37446;DHT22;23307;51.136;14.942;2023-03-16T00:58:39;1.70;99.90
37446;DHT22;23307;51.136;14.942;2023-03-16T01:01:14;1.70;99.90
37446;DHT22;23307;51.136;14.942;2023-03-16T01:03:40;1.80;99.90
37446;DHT22;23307;51.136;14.942;2023-03-16T01:06:10;1.80;99.90
37446;DHT22;23307;51.136;14.942;2023-03-16T01:08:37;1.80;99.90
37446;DHT22;23307;51.136;14.942;2023-03-16T01:11:08;1.90;99.90
37446;DHT22;23307;51.136;14.942;2023-03-16T01:13:35;1.90;99.90
37446;DHT22;23307;51.136;14.942;2023-03-16T01:16:01;1.90;99.90
37446;DHT22;23307;51.136;14.942;2023-03-16T01:18:27;1.90;99.90
37446;DHT22;23307;51.136;14.942;2023-03-16T01:20:52;1.90;99.90
37446;DHT22;23307;51.136;14.942;2023-03-16T01:23:19;1.90;99.90
37446;DHT22;23307;51.136;14.942;2023-03-16T01:25:45;1.90;99.90
37446;DHT22;23307;51.136;14.942;2023-03-16T01:28:18;1.90;99.90
37446;DHT22;23307;51.136;14.942;2023-03-16T01:30:44;1.90;99.90
37446;DHT22;23307;51.136;14.942;2023-03-16T01:33:10;1.90;99.90
37446;DHT22;23307;51.136;14.942;2023-03-16T01:35:35;1.90;99.90
37446;DHT22;23307;51.136;14.942;2023-03-16T01:38:01;1.80;99.90
37446;DHT22;23307;51.136;14.942;2023-03-16T01:40:26;1.80;99.90
37446;DHT22;23307;51.136;14.942;2023-03-16T01:43:00;1.80;99.90
37446;DHT22;23307;51.136;14.942;2023-03-16T01:51:05;1.70;99.90
37446;DHT22;23307;51.136;14.942;2023-03-16T01:53:32;1.60;99.90
37446;DHT22;23307;51.136;14.942;2023-03-16T01:55:59;1.60;99.90
37446;DHT22;23307;51.136;14.942;2023-03-16T01:58:29;1.60;99.90
37446;DHT22;23307;51.136;14.942;2023-03-16T02:00:55;1.60;99.90
37446;DHT22;23307;51.136;14.942;2023-03-16T02:03:23;1.50;99.90
37446;DHT22;23307;51.136;14.942;2023-03-16T02:05:56;1.40;99.90
37446;DHT22;23307;51.136;14.942;2023-03-16T02:08:24;1.40;99.90
37446;DHT22;23307;51.136;14.942;2023-03-16T02:10:49;1.50;99.90
37446;DHT22;23307;51.136;14.942;2023-03-16T02:13:20;1.50;99.90
37446;DHT22;23307;51.136;14.942;2023-03-16T02:15:46;1.50;99.90
37446;DHT22;23307;51.136;14.942;2023-03-16T02:18:12;1.50;99.90
37446;DHT22;23307;51.136;14.942;2023-03-16T02:21:40;1.60;99.90
37446;DHT22;23307;51.136;14.942;2023-03-16T02:23:46;1.60;99.90
37446;DHT22;23307;51.136;14.942;2023-03-16T02:27:04;1.60;99.90
37446;DHT22;23307;51.136;14.942;2023-03-16T02:32:24;1.60;99.90
37446;DHT22;23307;51.136;14.942;2023-03-16T02:34:51;1.60;99.90
37446;DHT22;23307;51.136;14.942;2023-03-16T02:37:16;1.60;99.90
37446;DHT22;23307;51.136;14.942;2023-03-16T02:39:42;1.60;99.90
37446;DHT22;23307;51.136;14.942;2023-03-16T02:42:13;1.60;99.90
37446;DHT22;23307;51.136;14.942;2023-03-16T02:44:39;1.60;99.90
37446;DHT22;23307;51.136;14.942;2023-03-16T02:47:17;1.60;99.90
37446;DHT22;23307;51.136;14.942;2023-03-16T02:49:45;1.60;99.90
37446;DHT22;23307;51.136;14.942;2023-03-16T02:52:11;1.60;99.90
37446;DHT22;23307;51.136;14.942;2023-03-16T02:54:36;1.60;99.90
37446;DHT22;23307;51.136;14.942;2023-03-16T02:57:02;1.70;99.90
37446;DHT22;23307;51.136;14.942;2023-03-16T02:59:29;1.70;99.90
37446;DHT22;23307;51.136;14.942;2023-03-16T03:01:54;1.70;99.90
37446;DHT22;23307;51.136;14.942;2023-03-16T03:04:20;1.60;99.90
37446;DHT22;23307;51.136;14.942;2023-03-16T03:06:47;1.60;99.90
37446;DHT22;23307;51.136;14.942;2023-03-16T03:09:13;1.60;99.90
37446;DHT22;23307;51.136;14.942;2023-03-16T03:11:39;1.60;99.90
37446;DHT22;23307;51.136;14.942;2023-03-16T03:14:04;1.60;99.90
37446;DHT22;23307;51.136;14.942;2023-03-16T03:16:30;1.60;99.90
37446;DHT22;23307;51.136;14.942;2023-03-16T03:18:56;1.60;99.90
37446;DHT22;23307;51.136;14.942;2023-03-16T03:21:22;1.60;99.90
37446;DHT22;23307;51.136;14.942;2023-03-16T03:23:48;1.60;99.90
37446;DHT22;23307;51.136;14.942;2023-03-16T03:26:15;1.70;99.90
37446;DHT22;23307;51.136;14.942;2023-03-16T03:28:40;1.70;99.90
37446;DHT22;23307;51.136;14.942;2023-03-16T03:31:11;1.70;99.90
37446;DHT22;23307;51.136;14.942;2023-03-16T03:33:37;1.70;99.90
37446;DHT22;23307;51.136;14.942;2023-03-16T03:36:02;1.70;99.90
37446;DHT22;23307;51.136;14.942;2023-03-16T03:38:28;1.80;99.90
37446;DHT22;23307;51.136;14.942;2023-03-16T03:40:54;1.80;99.90
37446;DHT22;23307;51.136;14.942;2023-03-16T03:43:24;1.90;99.90
37446;DHT22;23307;51.136;14.942;2023-03-16T03:45:57;1.90;99.90
37446;DHT22;23307;51.136;14.942;2023-03-16T03:48:24;1.90;99.90
37446;DHT22;23307;51.136;14.942;2023-03-16T03:50:49;1.90;99.90
37446;DHT22;23307;51.136;14.942;2023-03-16T03:53:15;1.90;99.90
37446;DHT22;23307;51.136;14.942;2023-03-16T03:55:41;2.00;99.90
37446;DHT22;23307;51.136;14.942;2023-03-16T03:58:06;2.00;99.90
37446;DHT22;23307;51.136;14.942;2023-03-16T04:00:32;2.00;99.90
37446;DHT22;23307;51.136;14.942;2023-03-16T04:02:58;2.00;99.90
37446;DHT22;23307;51.136;14.942;2023-03-16T04:05:24;2.00;99.90
37446;DHT22;23307;51.136;14.942;2023-03-16T04:07:55;2.00;99.90
37446;DHT22;23307;51.136;14.942;2023-03-16T04:10:29;2.10;99.90
37446;DHT22;23307;51.136;14.942;2023-03-16T04:12:55;2.10;99.90
37446;DHT22;23307;51.136;14.942;2023-03-16T04:15:22;2.10;99.90
37446;DHT22;23307;51.136;14.942;2023-03-16T04:17:48;2.10;99.90
37446;DHT22;23307;51.136;14.942;2023-03-16T04:20:14;2.00;99.90
37446;DHT22;23307;51.136;14.942;2023-03-16T04:22:43;1.90;99.90
37446;DHT22;23307;51.136;14.942;2023-03-16T04:25:11;1.80;99.90
37446;DHT22;23307;51.136;14.942;2023-03-16T04:27:36;1.80;99.90
37446;DHT22;23307;51.136;14.942;2023-03-16T04:30:12;1.60;99.90
37446;DHT22;23307;51.136;14.942;2023-03-16T04:32:39;1.60;99.90
37446;DHT22;23307;51.136;14.942;2023-03-16T04:35:05;1.50;99.90
37446;DHT22;23307;51.136;14.942;2023-03-16T04:37:30;1.60;99.90
37446;DHT22;23307;51.136;14.942;2023-03-16T04:39:56;1.50;99.90
37446;DHT22;23307;51.136;14.942;2023-03-16T04:42:21;1.50;99.90
37446;DHT22;23307;51.136;14.942;2023-03-16T04:44:47;1.50;99.90
37446;DHT22;23307;51.136;14.942;2023-03-16T04:47:15;1.40;99.90
37446;DHT22;23307;51.136;14.942;2023-03-16T04:49:41;1.40;99.90
37446;DHT22;23307;51.136;14.942;2023-03-16T04:52:07;1.30;99.90
37446;DHT22;23307;51.136;14.942;2023-03-16T04:54:33;1.30;99.90
37446;DHT22;23307;51.136;14.942;2023-03-16T04:56:59;1.30;99.90
37446;DHT22;23307;51.136;14.942;2023-03-16T04:59:25;1.30;99.90
37446;DHT22;23307;51.136;14.942;2023-03-16T05:01:51;1.30;99.90
37446;DHT22;23307;51.136;14.942;2023-03-16T05:04:18;1.30;99.90
37446;DHT22;23307;51.136;14.942;2023-03-16T05:06:44;1.30;99.90
37446;DHT22;23307;51.136;14.942;2023-03-16T05:09:09;1.20;99.90
37446;DHT22;23307;51.136;14.942;2023-03-16T05:11:35;1.20;99.90
37446;DHT22;23307;51.136;14.942;2023-03-16T05:14:00;1.20;99.90
37446;DHT22;23307;51.136;14.942;2023-03-16T05:16:29;1.10;99.90
37446;DHT22;23307;51.136;14.942;2023-03-16T05:18:59;1.10;99.90
37446;DHT22;23307;51.136;14.942;2023-03-16T05:21:24;1.10;99.90
37446;DHT22;23307;51.136;14.942;2023-03-16T05:23:50;1.00;99.90
37446;DHT22;23307;51.136;14.942;2023-03-16T05:26:16;1.00;99.90
37446;DHT22;23307;51.136;14.942;2023-03-16T05:28:42;1.00;99.90
37446;DHT22;23307;51.136;14.942;2023-03-16T05:31:08;1.10;99.90
37446;DHT22;23307;51.136;14.942;2023-03-16T05:33:34;1.10;99.90
37446;DHT22;23307;51.136;14.942;2023-03-16T05:35:59;1.10;99.90
37446;DHT22;23307;51.136;14.942;2023-03-16T05:38:27;1.10;99.90
37446;DHT22;23307;51.136;14.942;2023-03-16T05:40:53;1.10;99.90
37446;DHT22;23307;51.136;14.942;2023-03-16T05:43:20;1.10;99.90
37446;DHT22;23307;51.136;14.942;2023-03-16T05:45:46;1.10;99.90
37446;DHT22;23307;51.136;14.942;2023-03-16T05:48:12;1.20;99.90
37446;DHT22;23307;51.136;14.942;2023-03-16T05:50:39;1.20;99.90
37446;DHT22;23307;51.136;14.942;2023-03-16T05:53:05;1.20;99.90
37446;DHT22;23307;51.136;14.942;2023-03-16T05:55:30;1.20;99.90
37446;DHT22;23307;51.136;14.942;2023-03-16T05:57:56;1.20;99.90
37446;DHT22;23307;51.136;14.942;2023-03-16T06:00:21;1.20;99.90
37446;DHT22;23307;51.136;14.942;2023-03-16T06:02:49;1.20;99.90
37446;DHT22;23307;51.136;14.942;2023-03-16T06:05:17;1.30;99.90
37446;DHT22;23307;51.136;14.942;2023-03-16T06:07:43;1.30;99.90
37446;DHT22;23307;51.136;14.942;2023-03-16T06:10:09;1.40;99.90
37446;DHT22;23307;51.136;14.942;2023-03-16T06:12:35;1.40;99.90
37446;DHT22;23307;51.136;14.942;2023-03-16T06:15:01;1.40;99.90
37446;DHT22;23307;51.136;14.942;2023-03-16T06:17:27;1.40;99.90
37446;DHT22;23307;51.136;14.942;2023-03-16T06:19:52;1.50;99.90
37446;DHT22;23307;51.136;14.942;2023-03-16T06:22:18;1.50;99.90
37446;DHT22;23307;51.136;14.942;2023-03-16T06:24:43;1.50;99.90
37446;DHT22;23307;51.136;14.942;2023-03-16T06:27:09;1.50;99.90
37446;DHT22;23307;51.136;14.942;2023-03-16T06:29:35;1.50;99.90
37446;DHT22;23307;51.136;14.942;2023-03-16T06:32:00;1.50;99.90
37446;DHT22;23307;51.136;14.942;2023-03-16T06:34:26;1.50;99.90
37446;DHT22;23307;51.136;14.942;2023-03-16T06:36:51;1.60;99.90
37446;DHT22;23307;51.136;14.942;2023-03-16T06:39:17;1.60;99.90
37446;DHT22;23307;51.136;14.942;2023-03-16T06:41:43;1.70;99.90
37446;DHT22;23307;51.136;14.942;2023-03-16T06:44:09;1.70;99.90
37446;DHT22;23307;51.136;14.942;2023-03-16T06:46:36;1.80;99.90
37446;DHT22;23307;51.136;14.942;2023-03-16T06:49:01;1.80;99.90
37446;DHT22;23307;51.136;14.942;2023-03-16T06:51:28;1.90;99.90
37446;DHT22;23307;51.136;14.942;2023-03-16T06:53:54;1.90;99.90
37446;DHT22;23307;51.136;14.942;2023-03-16T06:56:19;1.90;99.90
37446;DHT22;23307;51.136;14.942;2023-03-16T06:58:45;2.00;99.90
37446;DHT22;23307;51.136;14.942;2023-03-16T07:01:10;2.10;99.90
37446;DHT22;23307;51.136;14.942;2023-03-16T07:03:37;2.20;99.90
37446;DHT22;23307;51.136;14.942;2023-03-16T07:06:02;2.20;99.90
37446;DHT22;23307;51.136;14.942;2023-03-16T07:08:28;2.30;99.90
37446;DHT22;23307;51.136;14.942;2023-03-16T07:10:53;2.40;99.90
37446;DHT22;23307;51.136;14.942;2023-03-16T07:13:19;2.50;99.90
37446;DHT22;23307;51.136;14.942;2023-03-16T07:15:44;2.60;99.90
37446;DHT22;23307;51.136;14.942;2023-03-16T07:18:10;2.70;99.90
37446;DHT22;23307;51.136;14.942;2023-03-16T07:20:37;2.80;99.90
37446;DHT22;23307;51.136;14.942;2023-03-16T07:23:02;2.80;99.90
37446;DHT22;23307;51.136;14.942;2023-03-16T07:25:29;2.90;99.90
37446;DHT22;23307;51.136;14.942;2023-03-16T07:27:56;3.00;99.90
37446;DHT22;23307;51.136;14.942;2023-03-16T07:30:21;3.10;99.90
37446;DHT22;23307;51.136;14.942;2023-03-16T07:32:49;3.20;99.90
37446;DHT22;23307;51.136;14.942;2023-03-16T07:35:15;3.30;99.90
37446;DHT22;23307;51.136;14.942;2023-03-16T07:37:41;3.40;99.90
37446;DHT22;23307;51.136;14.942;2023-03-16T07:40:07;3.50;99.90
37446;DHT22;23307;51.136;14.942;2023-03-16T07:42:34;3.60;99.90
37446;DHT22;23307;51.136;14.942;2023-03-16T07:45:00;3.70;99.90
37446;DHT22;23307;51.136;14.942;2023-03-16T07:47:26;3.70;99.90
37446;DHT22;23307;51.136;14.942;2023-03-16T07:49:52;3.80;99.90
37446;DHT22;23307;51.136;14.942;2023-03-16T07:52:18;3.90;99.90
37446;DHT22;23307;51.136;14.942;2023-03-16T07:54:43;4.00;99.90
37446;DHT22;23307;51.136;14.942;2023-03-16T07:57:09;4.20;99.90
37446;DHT22;23307;51.136;14.942;2023-03-16T07:59:34;4.30;99.90
37446;DHT22;23307;51.136;14.942;2023-03-16T08:02:00;4.40;99.90
37446;DHT22;23307;51.136;14.942;2023-03-16T08:04:25;4.50;99.90
37446;DHT22;23307;51.136;14.942;2023-03-16T08:06:51;4.50;99.90
37446;DHT22;23307;51.136;14.942;2023-03-16T08:09:18;4.60;99.90
37446;DHT22;23307;51.136;14.942;2023-03-16T08:11:43;4.70;99.90
37446;DHT22;23307;51.136;14.942;2023-03-16T08:14:09;4.80;99.90
37446;DHT22;23307;51.136;14.942;2023-03-16T08:16:34;4.90;99.90
37446;DHT22;23307;51.136;14.942;2023-03-16T08:19:00;5.00;99.90
37446;DHT22;23307;51.136;14.942;2023-03-16T08:21:26;5.10;99.90
37446;DHT22;23307;51.136;14.942;2023-03-16T08:23:52;5.10;99.90
37446;DHT22;23307;51.136;14.942;2023-03-16T08:26:22;5.20;99.90
37446;DHT22;23307;51.136;14.942;2023-03-16T08:28:50;5.40;99.90
37446;DHT22;23307;51.136;14.942;2023-03-16T08:31:16;5.40;99.90
37446;DHT22;23307;51.136;14.942;2023-03-16T08:33:43;5.50;99.90
37446;DHT22;23307;51.136;14.942;2023-03-16T08:36:12;5.60;99.90
37446;DHT22;23307;51.136;14.942;2023-03-16T08:38:38;5.70;99.90
37446;DHT22;23307;51.136;14.942;2023-03-16T08:41:11;5.80;99.90
37446;DHT22;23307;51.136;14.942;2023-03-16T08:43:37;5.70;99.90
37446;DHT22;23307;51.136;14.942;2023-03-16T08:46:02;5.80;99.90
37446;DHT22;23307;51.136;14.942;2023-03-16T08:48:30;6.00;99.90
37446;DHT22;23307;51.136;14.942;2023-03-16T08:50:55;6.10;99.90
37446;DHT22;23307;51.136;14.942;2023-03-16T08:53:21;6.10;99.90
37446;DHT22;23307;51.136;14.942;2023-03-16T08:55:46;6.10;99.90
37446;DHT22;23307;51.136;14.942;2023-03-16T08:58:12;6.20;99.90
37446;DHT22;23307;51.136;14.942;2023-03-16T09:00:38;6.30;99.90
37446;DHT22;23307;51.136;14.942;2023-03-16T09:03:05;6.50;99.90
37446;DHT22;23307;51.136;14.942;2023-03-16T09:05:30;6.60;99.90
37446;DHT22;23307;51.136;14.942;2023-03-16T09:07:58;6.80;99.90
37446;DHT22;23307;51.136;14.942;2023-03-16T09:10:24;7.00;99.90
37446;DHT22;23307;51.136;14.942;2023-03-16T09:12:51;7.10;99.90
37446;DHT22;23307;51.136;14.942;2023-03-16T09:15:19;7.20;99.90
37446;DHT22;23307;51.136;14.942;2023-03-16T09:17:46;7.30;99.90
37446;DHT22;23307;51.136;14.942;2023-03-16T09:20:14;7.40;99.90
37446;DHT22;23307;51.136;14.942;2023-03-16T09:22:40;7.40;99.90
37446;DHT22;23307;51.136;14.942;2023-03-16T09:25:06;7.50;99.90
37446;DHT22;23307;51.136;14.942;2023-03-16T09:27:33;7.50;99.90
37446;DHT22;23307;51.136;14.942;2023-03-16T09:30:01;7.60;99.90
37446;DHT22;23307;51.136;14.942;2023-03-16T09:32:29;7.70;99.90
37446;DHT22;23307;51.136;14.942;2023-03-16T09:34:54;7.80;99.90
37446;DHT22;23307;51.136;14.942;2023-03-16T09:37:21;7.80;99.90
37446;DHT22;23307;51.136;14.942;2023-03-16T09:39:49;7.90;99.90
37446;DHT22;23307;51.136;14.942;2023-03-16T09:42:34;7.90;99.20
37446;DHT22;23307;51.136;14.942;2023-03-16T09:45:31;7.80;99.90
37446;DHT22;23307;51.136;14.942;2023-03-16T09:48:02;8.00;99.50
37446;DHT22;23307;51.136;14.942;2023-03-16T09:50:34;8.00;99.80
37446;DHT22;23307;51.136;14.942;2023-03-16T09:53:17;8.10;99.60
37446;DHT22;23307;51.136;14.942;2023-03-16T09:55:51;8.20;98.30
37446;DHT22;23307;51.136;14.942;2023-03-16T09:58:20;8.40;98.60
37446;DHT22;23307;51.136;14.942;2023-03-16T10:06:25;8.60;96.80
37446;DHT22;23307;51.136;14.942;2023-03-16T10:09:14;8.70;97.30
37446;DHT22;23307;51.136;14.942;2023-03-16T10:11:45;8.80;97.30
37446;DHT22;23307;51.136;14.942;2023-03-16T10:14:17;9.00;97.40
37446;DHT22;23307;51.136;14.942;2023-03-16T10:19:56;9.30;95.20
37446;DHT22;23307;51.136;14.942;2023-03-16T10:22:32;9.40;94.70
37446;DHT22;23307;51.136;14.942;2023-03-16T10:25:06;9.40;93.30
37446;DHT22;23307;51.136;14.942;2023-03-16T10:27:35;9.30;92.50
37446;DHT22;23307;51.136;14.942;2023-03-16T10:30:14;9.40;92.30
37446;DHT22;23307;51.136;14.942;2023-03-16T10:32:44;9.40;92.10
37446;DHT22;23307;51.136;14.942;2023-03-16T10:37:52;9.70;90.10
37446;DHT22;23307;51.136;14.942;2023-03-16T10:40:18;9.50;87.00
37446;DHT22;23307;51.136;14.942;2023-03-16T10:42:45;9.60;89.10
37446;DHT22;23307;51.136;14.942;2023-03-16T10:45:23;9.80;88.70
37446;DHT22;23307;51.136;14.942;2023-03-16T10:47:51;10.00;87.80
37446;DHT22;23307;51.136;14.942;2023-03-16T10:50:23;10.10;85.00
37446;DHT22;23307;51.136;14.942;2023-03-16T10:52:50;10.20;80.00
37446;DHT22;23307;51.136;14.942;2023-03-16T10:55:23;10.10;77.40
37446;DHT22;23307;51.136;14.942;2023-03-16T10:57:52;10.10;78.50
37446;DHT22;23307;51.136;14.942;2023-03-16T11:00:33;10.30;79.60
37446;DHT22;23307;51.136;14.942;2023-03-16T11:03:12;10.40;78.70
37446;DHT22;23307;51.136;14.942;2023-03-16T11:05:44;10.60;78.60
37446;DHT22;23307;51.136;14.942;2023-03-16T11:10:43;10.70;74.70
37446;DHT22;23307;51.136;14.942;2023-03-16T11:13:12;10.80;72.20
37446;DHT22;23307;51.136;14.942;2023-03-16T11:15:55;10.90;73.40
37446;DHT22;23307;51.136;14.942;2023-03-16T11:20:53;11.40;74.40
37446;DHT22;23307;51.136;14.942;2023-03-16T11:23:28;11.40;70.40
37446;DHT22;23307;51.136;14.942;2023-03-16T11:25:55;11.40;67.40
37446;DHT22;23307;51.136;14.942;2023-03-16T11:28:43;11.40;67.90
37446;DHT22;23307;51.136;14.942;2023-03-16T11:31:18;11.40;66.50
37446;DHT22;23307;51.136;14.942;2023-03-16T11:33:46;11.50;64.60
37446;DHT22;23307;51.136;14.942;2023-03-16T11:41:59;11.90;60.70
37446;DHT22;23307;51.136;14.942;2023-03-16T11:50:35;12.00;53.00
37446;DHT22;23307;51.136;14.942;2023-03-16T11:53:10;11.80;51.60
37446;DHT22;23307;51.136;14.942;2023-03-16T11:56:02;11.80;54.30
37446;DHT22;23307;51.136;14.942;2023-03-16T11:58:54;12.10;55.70
37446;DHT22;23307;51.136;14.942;2023-03-16T12:03:53;12.00;49.30
37446;DHT22;23307;51.136;14.942;2023-03-16T12:06:37;11.90;51.20
37446;DHT22;23307;51.136;14.942;2023-03-16T12:09:20;12.10;51.70
37446;DHT22;23307;51.136;14.942;2023-03-16T12:12:01;12.10;52.40
37446;DHT22;23307;51.136;14.942;2023-03-16T12:14:40;12.30;51.70
37446;DHT22;23307;51.136;14.942;2023-03-16T12:17:16;12.30;51.70
37446;DHT22;23307;51.136;14.942;2023-03-16T12:19:48;12.40;53.80
37446;DHT22;23307;51.136;14.942;2023-03-16T12:22:19;12.70;55.10
37446;DHT22;23307;51.136;14.942;2023-03-16T12:24:48;12.70;52.30
37446;DHT22;23307;51.136;14.942;2023-03-16T12:27:34;12.80;53.60
37446;DHT22;23307;51.136;14.942;2023-03-16T12:30:19;13.00;53.80
37446;DHT22;23307;51.136;14.942;2023-03-16T12:33:07;13.30;53.80
37446;DHT22;23307;51.136;14.942;2023-03-16T12:35:51;13.50;53.00
37446;DHT22;23307;51.136;14.942;2023-03-16T12:38:44;13.60;52.60
37446;DHT22;23307;51.136;14.942;2023-03-16T12:46:35;14.10;52.20
37446;DHT22;23307;51.136;14.942;2023-03-16T12:49:05;14.20;52.30
37446;DHT22;23307;51.136;14.942;2023-03-16T12:51:36;14.20;51.00
37446;DHT22;23307;51.136;14.942;2023-03-16T12:54:04;14.10;51.90
37446;DHT22;23307;51.136;14.942;2023-03-16T12:56:35;14.30;51.50
37446;DHT22;23307;51.136;14.942;2023-03-16T12:59:15;14.40;50.80
37446;DHT22;23307;51.136;14.942;2023-03-16T13:01:43;14.50;50.80
37446;DHT22;23307;51.136;14.942;2023-03-16T13:04:21;14.60;51.30
37446;DHT22;23307;51.136;14.942;2023-03-16T13:06:50;14.70;49.50
37446;DHT22;23307;51.136;14.942;2023-03-16T13:09:27;14.80;49.20
37446;DHT22;23307;51.136;14.942;2023-03-16T13:11:56;14.60;49.80
37446;DHT22;23307;51.136;14.942;2023-03-16T13:14:42;14.60;49.30
37446;DHT22;23307;51.136;14.942;2023-03-16T13:19:39;15.10;51.20
37446;DHT22;23307;51.136;14.942;2023-03-16T13:22:25;15.20;49.80
37446;DHT22;23307;51.136;14.942;2023-03-16T13:25:10;15.40;49.70
37446;DHT22;23307;51.136;14.942;2023-03-16T13:27:38;15.30;49.00
37446;DHT22;23307;51.136;14.942;2023-03-16T13:30:33;15.40;49.20
37446;DHT22;23307;51.136;14.942;2023-03-16T13:33:11;15.40;50.10
37446;DHT22;23307;51.136;14.942;2023-03-16T13:35:39;15.40;48.90
37446;DHT22;23307;51.136;14.942;2023-03-16T13:38:16;15.00;48.70
37446;DHT22;23307;51.136;14.942;2023-03-16T13:40:49;14.90;50.00
37446;DHT22;23307;51.136;14.942;2023-03-16T13:43:17;15.00;50.00
37446;DHT22;23307;51.136;14.942;2023-03-16T13:45:43;14.90;49.50
37446;DHT22;23307;51.136;14.942;2023-03-16T13:48:13;14.70;50.50
37446;DHT22;23307;51.136;14.942;2023-03-16T13:50:39;15.00;52.20
37446;DHT22;23307;51.136;14.942;2023-03-16T13:53:20;15.20;52.10
37446;DHT22;23307;51.136;14.942;2023-03-16T13:55:47;15.20;50.90
37446;DHT22;23307;51.136;14.942;2023-03-16T13:58:26;15.40;51.40
37446;DHT22;23307;51.136;14.942;2023-03-16T14:00:57;15.80;53.10
37446;DHT22;23307;51.136;14.942;2023-03-16T14:03:36;16.20;52.90
37446;DHT22;23307;51.136;14.942;2023-03-16T14:06:04;16.10;50.70
37446;DHT22;23307;51.136;14.942;2023-03-16T14:08:30;16.10;50.40
37446;DHT22;23307;51.136;14.942;2023-03-16T14:10:57;16.20;50.40
37446;DHT22;23307;51.136;14.942;2023-03-16T14:15:55;16.00;49.10
37446;DHT22;23307;51.136;14.942;2023-03-16T14:18:34;15.60;48.50
37446;DHT22;23307;51.136;14.942;2023-03-16T14:21:08;15.50;48.50
37446;DHT22;23307;51.136;14.942;2023-03-16T14:23:39;15.70;50.80
37446;DHT22;23307;51.136;14.942;2023-03-16T14:26:11;16.10;50.00
37446;DHT22;23307;51.136;14.942;2023-03-16T14:28:41;16.20;46.60
37446;DHT22;23307;51.136;14.942;2023-03-16T14:31:19;16.10;47.00
37446;DHT22;23307;51.136;14.942;2023-03-16T14:33:45;15.90;45.80
37446;DHT22;23307;51.136;14.942;2023-03-16T14:36:13;15.80;46.30
37446;DHT22;23307;51.136;14.942;2023-03-16T14:38:40;15.80;46.30
37446;DHT22;23307;51.136;14.942;2023-03-16T14:43:35;16.00;45.50
37446;DHT22;23307;51.136;14.942;2023-03-16T14:46:06;16.10;44.40
37446;DHT22;23307;51.136;14.942;2023-03-16T14:48:33;16.30;44.70
37446;DHT22;23307;51.136;14.942;2023-03-16T14:51:00;16.40;45.00
37446;DHT22;23307;51.136;14.942;2023-03-16T14:53:28;16.70;44.80
37446;DHT22;23307;51.136;14.942;2023-03-16T14:55:54;16.60;41.50
37446;DHT22;23307;51.136;14.942;2023-03-16T14:58:21;16.30;41.80
37446;DHT22;23307;51.136;14.942;2023-03-16T15:00:47;16.20;42.80
37446;DHT22;23307;51.136;14.942;2023-03-16T15:03:14;16.20;43.00
37446;DHT22;23307;51.136;14.942;2023-03-16T15:05:42;16.20;42.60
37446;DHT22;23307;51.136;14.942;2023-03-16T15:08:22;16.10;42.70
37446;DHT22;23307;51.136;14.942;2023-03-16T15:10:50;16.00;42.00
37446;DHT22;23307;51.136;14.942;2023-03-16T15:13:18;15.70;42.80
37446;DHT22;23307;51.136;14.942;2023-03-16T15:16:04;15.30;42.50
37446;DHT22;23307;51.136;14.942;2023-03-16T15:18:31;15.00;42.70
37446;DHT22;23307;51.136;14.942;2023-03-16T15:20:57;14.70;43.00
37446;DHT22;23307;51.136;14.942;2023-03-16T15:23:23;14.50;42.70
37446;DHT22;23307;51.136;14.942;2023-03-16T15:25:49;14.30;44.00
37446;DHT22;23307;51.136;14.942;2023-03-16T15:28:22;14.20;44.60
37446;DHT22;23307;51.136;14.942;2023-03-16T15:30:53;14.10;44.50
37446;DHT22;23307;51.136;14.942;2023-03-16T15:33:19;13.90;44.90
37446;DHT22;23307;51.136;14.942;2023-03-16T15:35:46;13.70;44.90
37446;DHT22;23307;51.136;14.942;2023-03-16T15:38:27;13.70;45.50
37446;DHT22;23307;51.136;14.942;2023-03-16T15:40:54;13.60;45.50
37446;DHT22;23307;51.136;14.942;2023-03-16T15:43:24;13.50;45.60
37446;DHT22;23307;51.136;14.942;2023-03-16T15:45:51;13.20;46.20
37446;DHT22;23307;51.136;14.942;2023-03-16T15:48:18;13.00;46.60
37446;DHT22;23307;51.136;14.942;2023-03-16T15:50:56;12.90;47.70
37446;DHT22;23307;51.136;14.942;2023-03-16T15:53:41;12.70;48.00
37446;DHT22;23307;51.136;14.942;2023-03-16T15:56:13;12.50;48.40
37446;DHT22;23307;51.136;14.942;2023-03-16T15:58:40;12.50;48.90
37446;DHT22;23307;51.136;14.942;2023-03-16T16:01:07;12.50;49.20
37446;DHT22;23307;51.136;14.942;2023-03-16T16:03:33;12.40;49.70
37446;DHT22;23307;51.136;14.942;2023-03-16T16:05:59;12.20;50.10
37446;DHT22;23307;51.136;14.942;2023-03-16T16:08:25;12.00;50.20
37446;DHT22;23307;51.136;14.942;2023-03-16T16:10:51;11.90;50.80
37446;DHT22;23307;51.136;14.942;2023-03-16T16:13:28;11.90;50.90
37446;DHT22;23307;51.136;14.942;2023-03-16T16:15:57;11.90;51.10
37446;DHT22;23307;51.136;14.942;2023-03-16T16:18:31;11.90;51.50
37446;DHT22;23307;51.136;14.942;2023-03-16T16:21:00;12.00;52.00
37446;DHT22;23307;51.136;14.942;2023-03-16T16:23:27;11.90;52.30
37446;DHT22;23307;51.136;14.942;2023-03-16T16:26:00;11.80;52.30
37446;DHT22;23307;51.136;14.942;2023-03-16T16:28:30;11.80;52.50
37446;DHT22;23307;51.136;14.942;2023-03-16T16:30:58;11.80;52.70